sensor_id;sensor_type;location;lat;lon;timestamp;P1;durP1;ratioP1;P2;durP2;ratioP2
48215;SDS011;34005;48.844;10.098;2022-11-11T00:00:07;9.38;;;3.90;;
48215;SDS011;34005;48.844;10.098;2022-11-11T00:02:36;11.25;;;4.70;;
48215;SDS011;34005;48.844;10.098;2022-11-11T00:05:07;9.60;;;4.65;;
48215;SDS011;34005;48.844;10.098;2022-11-11T00:07:36;15.05;;;4.63;;
48215;SDS011;34005;48.844;10.098;2022-11-11T00:10:05;7.68;;;3.78;;
48215;SDS011;34005;48.844;10.098;2022-11-11T00:12:34;18.63;;;4.20;;
48215;SDS011;34005;48.844;10.098;2022-11-11T00:15:03;11.07;;;5.38;;
48215;SDS011;34005;48.844;10.098;2022-11-11T00:17:32;9.73;;;4.07;;
48215;SDS011;34005;48.844;10.098;2022-11-11T00:20:19;9.73;;;4.72;;
48215;SDS011;34005;48.844;10.098;2022-11-11T00:23:14;12.03;;;5.10;;
48215;SDS011;34005;48.844;10.098;2022-11-11T00:26:05;9.50;;;5.07;;
48215;SDS011;34005;48.844;10.098;2022-11-11T00:28:53;10.27;;;6.20;;
48215;SDS011;34005;48.844;10.098;2022-11-11T00:31:22;11.27;;;6.25;;
48215;SDS011;34005;48.844;10.098;2022-11-11T00:33:51;9.98;;;5.75;;
48215;SDS011;34005;48.844;10.098;2022-11-11T00:36:21;7.85;;;5.78;;
48215;SDS011;34005;48.844;10.098;2022-11-11T00:38:49;10.55;;;6.72;;
48215;SDS011;34005;48.844;10.098;2022-11-11T00:41:22;11.30;;;6.45;;
48215;SDS011;34005;48.844;10.098;2022-11-11T00:43:53;10.27;;;6.30;;
48215;SDS011;34005;48.844;10.098;2022-11-11T00:46:21;9.35;;;6.18;;
48215;SDS011;34005;48.844;10.098;2022-11-11T00:49:07;8.63;;;6.05;;
48215;SDS011;34005;48.844;10.098;2022-11-11T00:51:54;15.07;;;7.28;;
48215;SDS011;34005;48.844;10.098;2022-11-11T00:54:23;9.77;;;6.13;;
48215;SDS011;34005;48.844;10.098;2022-11-11T00:56:51;13.50;;;7.18;;
48215;SDS011;34005;48.844;10.098;2022-11-11T00:59:20;8.48;;;6.65;;
48215;SDS011;34005;48.844;10.098;2022-11-11T01:01:48;11.23;;;6.90;;
48215;SDS011;34005;48.844;10.098;2022-11-11T01:04:17;15.02;;;8.07;;
48215;SDS011;34005;48.844;10.098;2022-11-11T01:06:45;9.45;;;7.30;;
48215;SDS011;34005;48.844;10.098;2022-11-11T01:09:15;10.63;;;7.20;;
48215;SDS011;34005;48.844;10.098;2022-11-11T01:11:44;9.13;;;6.03;;
48215;SDS011;34005;48.844;10.098;2022-11-11T01:14:13;9.02;;;5.97;;
48215;SDS011;34005;48.844;10.098;2022-11-11T01:16:41;10.82;;;5.97;;
48215;SDS011;34005;48.844;10.098;2022-11-11T01:19:10;6.40;;;5.40;;
48215;SDS011;34005;48.844;10.098;2022-11-11T01:21:38;9.85;;;5.13;;
48215;SDS011;34005;48.844;10.098;2022-11-11T01:24:06;10.80;;;5.28;;
48215;SDS011;34005;48.844;10.098;2022-11-11T01:26:36;7.85;;;5.32;;
48215;SDS011;34005;48.844;10.098;2022-11-11T01:29:04;7.75;;;4.70;;
48215;SDS011;34005;48.844;10.098;2022-11-11T01:31:32;8.45;;;5.45;;
48215;SDS011;34005;48.844;10.098;2022-11-11T01:34:00;9.70;;;6.38;;
48215;SDS011;34005;48.844;10.098;2022-11-11T01:36:29;6.65;;;5.88;;
48215;SDS011;34005;48.844;10.098;2022-11-11T01:38:58;8.48;;;5.72;;
48215;SDS011;34005;48.844;10.098;2022-11-11T01:41:28;8.38;;;5.95;;
48215;SDS011;34005;48.844;10.098;2022-11-11T01:44:11;8.95;;;5.70;;
48215;SDS011;34005;48.844;10.098;2022-11-11T01:46:46;9.00;;;5.25;;
48215;SDS011;34005;48.844;10.098;2022-11-11T01:49:20;8.82;;;5.68;;
48215;SDS011;34005;48.844;10.098;2022-11-11T01:51:56;7.10;;;4.97;;
48215;SDS011;34005;48.844;10.098;2022-11-11T01:54:33;9.10;;;5.10;;
48215;SDS011;34005;48.844;10.098;2022-11-11T01:57:05;8.70;;;4.18;;
48215;SDS011;34005;48.844;10.098;2022-11-11T01:59:41;7.97;;;5.40;;
48215;SDS011;34005;48.844;10.098;2022-11-11T02:02:14;11.70;;;5.50;;
48215;SDS011;34005;48.844;10.098;2022-11-11T02:04:47;7.30;;;4.97;;
48215;SDS011;34005;48.844;10.098;2022-11-11T02:07:34;10.48;;;4.88;;
48215;SDS011;34005;48.844;10.098;2022-11-11T02:10:04;6.35;;;4.38;;
48215;SDS011;34005;48.844;10.098;2022-11-11T02:12:35;7.50;;;4.63;;
48215;SDS011;34005;48.844;10.098;2022-11-11T02:15:22;8.23;;;6.07;;
48215;SDS011;34005;48.844;10.098;2022-11-11T02:17:50;6.65;;;4.53;;
48215;SDS011;34005;48.844;10.098;2022-11-11T02:20:21;6.53;;;4.68;;
48215;SDS011;34005;48.844;10.098;2022-11-11T02:22:52;6.03;;;4.70;;
48215;SDS011;34005;48.844;10.098;2022-11-11T02:25:26;7.55;;;4.60;;
48215;SDS011;34005;48.844;10.098;2022-11-11T02:27:58;9.88;;;4.57;;
48215;SDS011;34005;48.844;10.098;2022-11-11T02:30:30;7.80;;;4.20;;
48215;SDS011;34005;48.844;10.098;2022-11-11T02:32:58;7.47;;;4.78;;
48215;SDS011;34005;48.844;10.098;2022-11-11T02:35:29;8.10;;;4.95;;
48215;SDS011;34005;48.844;10.098;2022-11-11T02:37:59;8.82;;;4.45;;
48215;SDS011;34005;48.844;10.098;2022-11-11T02:40:35;9.90;;;5.10;;
48215;SDS011;34005;48.844;10.098;2022-11-11T02:43:25;7.50;;;4.22;;
48215;SDS011;34005;48.844;10.098;2022-11-11T02:45:54;8.88;;;4.72;;
48215;SDS011;34005;48.844;10.098;2022-11-11T02:48:23;10.65;;;4.93;;
48215;SDS011;34005;48.844;10.098;2022-11-11T02:50:52;7.18;;;4.50;;
48215;SDS011;34005;48.844;10.098;2022-11-11T02:53:20;11.70;;;6.22;;
48215;SDS011;34005;48.844;10.098;2022-11-11T02:55:50;12.30;;;5.13;;
48215;SDS011;34005;48.844;10.098;2022-11-11T02:58:18;7.78;;;4.82;;
48215;SDS011;34005;48.844;10.098;2022-11-11T03:00:46;8.52;;;4.88;;
48215;SDS011;34005;48.844;10.098;2022-11-11T03:03:14;5.88;;;4.40;;
48215;SDS011;34005;48.844;10.098;2022-11-11T03:05:42;10.02;;;4.50;;
48215;SDS011;34005;48.844;10.098;2022-11-11T03:08:10;5.90;;;4.47;;
48215;SDS011;34005;48.844;10.098;2022-11-11T03:13:07;8.82;;;4.90;;
48215;SDS011;34005;48.844;10.098;2022-11-11T03:15:34;6.80;;;4.03;;
48215;SDS011;34005;48.844;10.098;2022-11-11T03:18:02;6.45;;;4.32;;
48215;SDS011;34005;48.844;10.098;2022-11-11T03:20:29;8.00;;;3.58;;
48215;SDS011;34005;48.844;10.098;2022-11-11T03:23:14;9.32;;;5.30;;
48215;SDS011;34005;48.844;10.098;2022-11-11T03:25:43;8.57;;;4.90;;
48215;SDS011;34005;48.844;10.098;2022-11-11T03:28:14;5.00;;;3.97;;
48215;SDS011;34005;48.844;10.098;2022-11-11T03:30:43;9.38;;;4.00;;
48215;SDS011;34005;48.844;10.098;2022-11-11T03:33:12;9.65;;;4.38;;
48215;SDS011;34005;48.844;10.098;2022-11-11T03:35:40;7.90;;;4.78;;
48215;SDS011;34005;48.844;10.098;2022-11-11T03:38:09;5.65;;;4.60;;
48215;SDS011;34005;48.844;10.098;2022-11-11T03:40:50;6.60;;;4.45;;
48215;SDS011;34005;48.844;10.098;2022-11-11T03:43:20;8.20;;;4.95;;
48215;SDS011;34005;48.844;10.098;2022-11-11T03:45:49;13.65;;;5.57;;
48215;SDS011;34005;48.844;10.098;2022-11-11T03:48:17;7.38;;;4.63;;
48215;SDS011;34005;48.844;10.098;2022-11-11T03:50:45;8.80;;;4.75;;
48215;SDS011;34005;48.844;10.098;2022-11-11T03:53:13;7.72;;;4.75;;
48215;SDS011;34005;48.844;10.098;2022-11-11T03:55:41;8.02;;;4.57;;
48215;SDS011;34005;48.844;10.098;2022-11-11T03:58:09;5.82;;;4.50;;
48215;SDS011;34005;48.844;10.098;2022-11-11T04:00:38;6.28;;;4.45;;
48215;SDS011;34005;48.844;10.098;2022-11-11T04:03:06;6.47;;;4.53;;
48215;SDS011;34005;48.844;10.098;2022-11-11T04:05:55;5.53;;;4.40;;
48215;SDS011;34005;48.844;10.098;2022-11-11T04:08:40;9.48;;;4.40;;
48215;SDS011;34005;48.844;10.098;2022-11-11T04:11:26;9.30;;;5.00;;
48215;SDS011;34005;48.844;10.098;2022-11-11T04:13:56;7.72;;;5.28;;
48215;SDS011;34005;48.844;10.098;2022-11-11T04:16:46;7.22;;;4.70;;
48215;SDS011;34005;48.844;10.098;2022-11-11T04:19:14;10.65;;;5.63;;
48215;SDS011;34005;48.844;10.098;2022-11-11T04:21:59;6.45;;;4.90;;
48215;SDS011;34005;48.844;10.098;2022-11-11T04:24:27;7.03;;;4.38;;
48215;SDS011;34005;48.844;10.098;2022-11-11T04:27:12;7.45;;;4.65;;
48215;SDS011;34005;48.844;10.098;2022-11-11T04:29:42;5.32;;;4.60;;
48215;SDS011;34005;48.844;10.098;2022-11-11T04:32:10;6.88;;;5.35;;
48215;SDS011;34005;48.844;10.098;2022-11-11T04:34:57;6.75;;;4.88;;
48215;SDS011;34005;48.844;10.098;2022-11-11T04:37:26;8.70;;;5.13;;
48215;SDS011;34005;48.844;10.098;2022-11-11T04:39:56;6.13;;;4.63;;
48215;SDS011;34005;48.844;10.098;2022-11-11T04:42:41;7.57;;;4.90;;
48215;SDS011;34005;48.844;10.098;2022-11-11T04:45:10;6.13;;;5.22;;
48215;SDS011;34005;48.844;10.098;2022-11-11T04:47:58;7.45;;;4.65;;
48215;SDS011;34005;48.844;10.098;2022-11-11T04:50:28;7.45;;;4.53;;
48215;SDS011;34005;48.844;10.098;2022-11-11T04:52:57;7.47;;;5.32;;
48215;SDS011;34005;48.844;10.098;2022-11-11T04:55:24;8.30;;;5.18;;
48215;SDS011;34005;48.844;10.098;2022-11-11T04:58:10;9.23;;;5.90;;
48215;SDS011;34005;48.844;10.098;2022-11-11T05:00:38;7.28;;;5.38;;
48215;SDS011;34005;48.844;10.098;2022-11-11T05:03:08;9.13;;;6.25;;
48215;SDS011;34005;48.844;10.098;2022-11-11T05:05:42;6.13;;;5.35;;
48215;SDS011;34005;48.844;10.098;2022-11-11T05:08:29;7.07;;;4.45;;
48215;SDS011;34005;48.844;10.098;2022-11-11T05:11:15;7.53;;;4.72;;
48215;SDS011;34005;48.844;10.098;2022-11-11T05:13:43;11.32;;;5.05;;
48215;SDS011;34005;48.844;10.098;2022-11-11T05:16:29;5.82;;;5.20;;
48215;SDS011;34005;48.844;10.098;2022-11-11T05:19:18;6.22;;;4.30;;
48215;SDS011;34005;48.844;10.098;2022-11-11T05:22:05;9.02;;;4.65;;
48215;SDS011;34005;48.844;10.098;2022-11-11T05:24:37;5.95;;;4.68;;
48215;SDS011;34005;48.844;10.098;2022-11-11T05:27:22;5.93;;;4.70;;
48215;SDS011;34005;48.844;10.098;2022-11-11T05:29:51;7.00;;;4.45;;
48215;SDS011;34005;48.844;10.098;2022-11-11T05:32:19;6.47;;;4.80;;
48215;SDS011;34005;48.844;10.098;2022-11-11T05:34:49;7.25;;;5.35;;
48215;SDS011;34005;48.844;10.098;2022-11-11T05:37:17;6.88;;;4.57;;
48215;SDS011;34005;48.844;10.098;2022-11-11T05:39:45;6.45;;;4.55;;
48215;SDS011;34005;48.844;10.098;2022-11-11T05:42:13;10.07;;;5.10;;
48215;SDS011;34005;48.844;10.098;2022-11-11T05:44:41;6.45;;;4.57;;
48215;SDS011;34005;48.844;10.098;2022-11-11T05:47:08;9.45;;;5.15;;
48215;SDS011;34005;48.844;10.098;2022-11-11T05:49:36;6.38;;;4.30;;
48215;SDS011;34005;48.844;10.098;2022-11-11T05:52:05;7.65;;;5.18;;
48215;SDS011;34005;48.844;10.098;2022-11-11T05:54:33;8.43;;;5.55;;
48215;SDS011;34005;48.844;10.098;2022-11-11T05:57:01;8.93;;;5.10;;
48215;SDS011;34005;48.844;10.098;2022-11-11T05:59:29;6.50;;;4.80;;
48215;SDS011;34005;48.844;10.098;2022-11-11T06:01:57;6.43;;;4.75;;
48215;SDS011;34005;48.844;10.098;2022-11-11T06:04:24;10.07;;;5.28;;
48215;SDS011;34005;48.844;10.098;2022-11-11T06:06:53;17.73;;;6.07;;
48215;SDS011;34005;48.844;10.098;2022-11-11T06:09:22;7.90;;;5.47;;
48215;SDS011;34005;48.844;10.098;2022-11-11T06:11:51;8.45;;;5.68;;
48215;SDS011;34005;48.844;10.098;2022-11-11T06:14:18;6.57;;;5.03;;
48215;SDS011;34005;48.844;10.098;2022-11-11T06:16:49;6.50;;;5.05;;
48215;SDS011;34005;48.844;10.098;2022-11-11T06:19:17;8.98;;;5.05;;
48215;SDS011;34005;48.844;10.098;2022-11-11T06:21:44;6.78;;;5.18;;
48215;SDS011;34005;48.844;10.098;2022-11-11T06:24:27;10.13;;;4.57;;
48215;SDS011;34005;48.844;10.098;2022-11-11T06:26:55;6.18;;;5.22;;
48215;SDS011;34005;48.844;10.098;2022-11-11T06:29:22;11.65;;;6.07;;
48215;SDS011;34005;48.844;10.098;2022-11-11T06:31:50;23.98;;;7.72;;
48215;SDS011;34005;48.844;10.098;2022-11-11T06:34:18;28.80;;;8.00;;
48215;SDS011;34005;48.844;10.098;2022-11-11T06:36:45;22.70;;;7.50;;
48215;SDS011;34005;48.844;10.098;2022-11-11T06:39:13;20.33;;;7.18;;
48215;SDS011;34005;48.844;10.098;2022-11-11T06:41:42;20.88;;;6.97;;
48215;SDS011;34005;48.844;10.098;2022-11-11T06:44:10;19.38;;;6.72;;
48215;SDS011;34005;48.844;10.098;2022-11-11T06:46:37;18.85;;;6.25;;
48215;SDS011;34005;48.844;10.098;2022-11-11T06:49:05;14.23;;;6.88;;
48215;SDS011;34005;48.844;10.098;2022-11-11T06:51:33;10.35;;;5.13;;
48215;SDS011;34005;48.844;10.098;2022-11-11T06:54:00;11.25;;;5.88;;
48215;SDS011;34005;48.844;10.098;2022-11-11T06:56:28;10.55;;;5.70;;
48215;SDS011;34005;48.844;10.098;2022-11-11T06:58:57;11.68;;;6.25;;
48215;SDS011;34005;48.844;10.098;2022-11-11T07:01:25;12.38;;;6.75;;
48215;SDS011;34005;48.844;10.098;2022-11-11T07:03:53;17.23;;;7.90;;
48215;SDS011;34005;48.844;10.098;2022-11-11T07:06:21;19.70;;;7.68;;
48215;SDS011;34005;48.844;10.098;2022-11-11T07:08:49;16.02;;;7.75;;
48215;SDS011;34005;48.844;10.098;2022-11-11T07:11:17;17.95;;;8.35;;
48215;SDS011;34005;48.844;10.098;2022-11-11T07:13:45;17.52;;;8.00;;
48215;SDS011;34005;48.844;10.098;2022-11-11T07:16:14;16.75;;;6.85;;
48215;SDS011;34005;48.844;10.098;2022-11-11T07:18:42;17.27;;;8.07;;
48215;SDS011;34005;48.844;10.098;2022-11-11T07:21:10;18.20;;;7.97;;
48215;SDS011;34005;48.844;10.098;2022-11-11T07:23:38;20.27;;;8.05;;
48215;SDS011;34005;48.844;10.098;2022-11-11T07:26:05;10.82;;;7.43;;
48215;SDS011;34005;48.844;10.098;2022-11-11T07:28:33;20.65;;;8.30;;
48215;SDS011;34005;48.844;10.098;2022-11-11T07:31:01;17.50;;;7.43;;
48215;SDS011;34005;48.844;10.098;2022-11-11T07:33:30;15.68;;;8.05;;
48215;SDS011;34005;48.844;10.098;2022-11-11T07:35:57;18.40;;;6.80;;
48215;SDS011;34005;48.844;10.098;2022-11-11T07:38:25;14.50;;;7.63;;
48215;SDS011;34005;48.844;10.098;2022-11-11T07:40:53;18.17;;;8.07;;
48215;SDS011;34005;48.844;10.098;2022-11-11T07:43:20;15.15;;;7.68;;
48215;SDS011;34005;48.844;10.098;2022-11-11T07:45:50;19.10;;;8.25;;
48215;SDS011;34005;48.844;10.098;2022-11-11T07:48:18;16.35;;;8.85;;
48215;SDS011;34005;48.844;10.098;2022-11-11T07:50:47;19.55;;;8.13;;
48215;SDS011;34005;48.844;10.098;2022-11-11T07:53:14;22.05;;;8.73;;
48215;SDS011;34005;48.844;10.098;2022-11-11T07:55:43;18.73;;;8.40;;
48215;SDS011;34005;48.844;10.098;2022-11-11T07:58:11;23.67;;;8.55;;
48215;SDS011;34005;48.844;10.098;2022-11-11T08:00:39;18.83;;;8.13;;
48215;SDS011;34005;48.844;10.098;2022-11-11T08:03:07;15.85;;;8.32;;
48215;SDS011;34005;48.844;10.098;2022-11-11T08:05:35;13.82;;;7.70;;
48215;SDS011;34005;48.844;10.098;2022-11-11T08:08:05;17.45;;;8.48;;
48215;SDS011;34005;48.844;10.098;2022-11-11T08:10:34;20.10;;;8.68;;
48215;SDS011;34005;48.844;10.098;2022-11-11T08:13:02;21.40;;;8.20;;
48215;SDS011;34005;48.844;10.098;2022-11-11T08:15:56;19.58;;;8.60;;
48215;SDS011;34005;48.844;10.098;2022-11-11T08:18:24;15.57;;;8.05;;
48215;SDS011;34005;48.844;10.098;2022-11-11T08:20:52;18.23;;;8.15;;
48215;SDS011;34005;48.844;10.098;2022-11-11T08:23:22;13.93;;;7.80;;
48215;SDS011;34005;48.844;10.098;2022-11-11T08:26:18;16.17;;;8.52;;
48215;SDS011;34005;48.844;10.098;2022-11-11T08:28:54;15.63;;;8.15;;
48215;SDS011;34005;48.844;10.098;2022-11-11T08:31:23;24.05;;;9.48;;
48215;SDS011;34005;48.844;10.098;2022-11-11T08:33:52;20.25;;;9.75;;
48215;SDS011;34005;48.844;10.098;2022-11-11T08:36:20;15.60;;;8.65;;
48215;SDS011;34005;48.844;10.098;2022-11-11T08:38:52;20.38;;;9.38;;
48215;SDS011;34005;48.844;10.098;2022-11-11T08:41:20;16.65;;;8.52;;
48215;SDS011;34005;48.844;10.098;2022-11-11T08:43:52;18.48;;;8.95;;
48215;SDS011;34005;48.844;10.098;2022-11-11T08:46:21;15.77;;;8.90;;
48215;SDS011;34005;48.844;10.098;2022-11-11T08:48:51;21.38;;;8.75;;
48215;SDS011;34005;48.844;10.098;2022-11-11T08:51:18;13.73;;;8.25;;
48215;SDS011;34005;48.844;10.098;2022-11-11T08:53:47;16.40;;;8.60;;
48215;SDS011;34005;48.844;10.098;2022-11-11T08:56:16;13.02;;;8.25;;
48215;SDS011;34005;48.844;10.098;2022-11-11T08:58:45;13.75;;;8.65;;
48215;SDS011;34005;48.844;10.098;2022-11-11T09:01:13;16.77;;;10.07;;
48215;SDS011;34005;48.844;10.098;2022-11-11T09:03:42;18.55;;;9.73;;
48215;SDS011;34005;48.844;10.098;2022-11-11T09:06:11;18.83;;;9.15;;
48215;SDS011;34005;48.844;10.098;2022-11-11T09:08:40;16.30;;;9.25;;
48215;SDS011;34005;48.844;10.098;2022-11-11T09:11:09;25.67;;;9.80;;
48215;SDS011;34005;48.844;10.098;2022-11-11T09:13:55;17.38;;;8.40;;
48215;SDS011;34005;48.844;10.098;2022-11-11T09:16:22;17.88;;;8.77;;
48215;SDS011;34005;48.844;10.098;2022-11-11T09:18:50;16.27;;;10.15;;
48215;SDS011;34005;48.844;10.098;2022-11-11T09:21:17;17.95;;;9.32;;
48215;SDS011;34005;48.844;10.098;2022-11-11T09:23:45;13.75;;;8.43;;
48215;SDS011;34005;48.844;10.098;2022-11-11T09:26:12;13.45;;;7.70;;
48215;SDS011;34005;48.844;10.098;2022-11-11T09:28:40;12.60;;;8.45;;
48215;SDS011;34005;48.844;10.098;2022-11-11T09:31:12;14.30;;;7.65;;
48215;SDS011;34005;48.844;10.098;2022-11-11T09:34:00;15.15;;;7.15;;
48215;SDS011;34005;48.844;10.098;2022-11-11T09:36:28;14.43;;;6.85;;
48215;SDS011;34005;48.844;10.098;2022-11-11T09:38:55;18.13;;;7.00;;
48215;SDS011;34005;48.844;10.098;2022-11-11T09:41:23;11.15;;;6.78;;
48215;SDS011;34005;48.844;10.098;2022-11-11T09:43:58;14.13;;;6.93;;
48215;SDS011;34005;48.844;10.098;2022-11-11T09:46:33;9.90;;;6.18;;
48215;SDS011;34005;48.844;10.098;2022-11-11T09:49:17;8.80;;;5.95;;
48215;SDS011;34005;48.844;10.098;2022-11-11T09:51:51;10.48;;;6.40;;
48215;SDS011;34005;48.844;10.098;2022-11-11T09:54:29;9.27;;;6.90;;
48215;SDS011;34005;48.844;10.098;2022-11-11T09:57:00;10.82;;;6.50;;
48215;SDS011;34005;48.844;10.098;2022-11-11T09:59:33;9.07;;;6.22;;
48215;SDS011;34005;48.844;10.098;2022-11-11T10:02:12;9.07;;;6.50;;
48215;SDS011;34005;48.844;10.098;2022-11-11T10:04:47;9.95;;;7.28;;
48215;SDS011;34005;48.844;10.098;2022-11-11T10:07:23;13.30;;;6.50;;
48215;SDS011;34005;48.844;10.098;2022-11-11T10:09:55;11.40;;;5.32;;
48215;SDS011;34005;48.844;10.098;2022-11-11T10:12:33;12.57;;;5.82;;
48215;SDS011;34005;48.844;10.098;2022-11-11T10:15:10;8.55;;;4.70;;
48215;SDS011;34005;48.844;10.098;2022-11-11T10:17:41;10.38;;;4.85;;
48215;SDS011;34005;48.844;10.098;2022-11-11T10:20:17;4.72;;;3.22;;
48215;SDS011;34005;48.844;10.098;2022-11-11T10:22:50;3.85;;;2.10;;
48215;SDS011;34005;48.844;10.098;2022-11-11T10:25:23;5.97;;;2.78;;
48215;SDS011;34005;48.844;10.098;2022-11-11T10:27:53;3.35;;;1.40;;
48215;SDS011;34005;48.844;10.098;2022-11-11T10:30:23;2.47;;;1.50;;
48215;SDS011;34005;48.844;10.098;2022-11-11T10:32:59;2.13;;;1.50;;
48215;SDS011;34005;48.844;10.098;2022-11-11T10:35:29;1.73;;;1.40;;
48215;SDS011;34005;48.844;10.098;2022-11-11T10:38:01;3.25;;;1.40;;
48215;SDS011;34005;48.844;10.098;2022-11-11T10:40:40;1.45;;;1.30;;
48215;SDS011;34005;48.844;10.098;2022-11-11T10:43:14;1.83;;;1.08;;
48215;SDS011;34005;48.844;10.098;2022-11-11T10:45:50;4.00;;;1.05;;
48215;SDS011;34005;48.844;10.098;2022-11-11T10:48:30;5.03;;;1.60;;
48215;SDS011;34005;48.844;10.098;2022-11-11T10:51:09;1.85;;;1.13;;
48215;SDS011;34005;48.844;10.098;2022-11-11T10:53:41;3.88;;;2.05;;
48215;SDS011;34005;48.844;10.098;2022-11-11T10:56:14;4.35;;;3.95;;
48215;SDS011;34005;48.844;10.098;2022-11-11T10:58:47;2.90;;;1.95;;
48215;SDS011;34005;48.844;10.098;2022-11-11T11:01:21;3.85;;;2.30;;
48215;SDS011;34005;48.844;10.098;2022-11-11T11:03:58;2.33;;;1.98;;
48215;SDS011;34005;48.844;10.098;2022-11-11T11:06:32;3.25;;;2.28;;
48215;SDS011;34005;48.844;10.098;2022-11-11T11:09:05;3.80;;;2.38;;
48215;SDS011;34005;48.844;10.098;2022-11-11T11:11:39;3.40;;;2.13;;
48215;SDS011;34005;48.844;10.098;2022-11-11T11:14:11;4.32;;;1.77;;
48215;SDS011;34005;48.844;10.098;2022-11-11T11:16:45;3.28;;;1.52;;
48215;SDS011;34005;48.844;10.098;2022-11-11T11:19:18;3.22;;;1.85;;
48215;SDS011;34005;48.844;10.098;2022-11-11T11:21:47;5.03;;;1.48;;
48215;SDS011;34005;48.844;10.098;2022-11-11T11:24:19;1.88;;;1.10;;
48215;SDS011;34005;48.844;10.098;2022-11-11T11:26:49;3.50;;;1.10;;
48215;SDS011;34005;48.844;10.098;2022-11-11T11:29:26;1.88;;;0.82;;
48215;SDS011;34005;48.844;10.098;2022-11-11T11:31:55;1.38;;;1.00;;
48215;SDS011;34005;48.844;10.098;2022-11-11T11:34:43;1.20;;;0.77;;
48215;SDS011;34005;48.844;10.098;2022-11-11T11:37:12;3.70;;;1.00;;
48215;SDS011;34005;48.844;10.098;2022-11-11T11:39:40;1.75;;;1.15;;
48215;SDS011;34005;48.844;10.098;2022-11-11T11:42:08;1.35;;;0.90;;
48215;SDS011;34005;48.844;10.098;2022-11-11T11:44:52;1.70;;;0.70;;
48215;SDS011;34005;48.844;10.098;2022-11-11T11:47:27;1.10;;;0.73;;
48215;SDS011;34005;48.844;10.098;2022-11-11T11:50:11;1.13;;;0.82;;
48215;SDS011;34005;48.844;10.098;2022-11-11T11:52:51;1.33;;;0.60;;
48215;SDS011;34005;48.844;10.098;2022-11-11T11:55:30;0.60;;;0.60;;
48215;SDS011;34005;48.844;10.098;2022-11-11T11:58:11;0.80;;;0.50;;
48215;SDS011;34005;48.844;10.098;2022-11-11T12:00:50;1.02;;;0.63;;
48215;SDS011;34005;48.844;10.098;2022-11-11T12:06:25;2.05;;;0.80;;
48215;SDS011;34005;48.844;10.098;2022-11-11T12:09:04;1.45;;;1.00;;
48215;SDS011;34005;48.844;10.098;2022-11-11T12:11:41;4.22;;;1.33;;
48215;SDS011;34005;48.844;10.098;2022-11-11T12:14:30;1.48;;;0.85;;
48215;SDS011;34005;48.844;10.098;2022-11-11T12:17:22;1.98;;;1.08;;
48215;SDS011;34005;48.844;10.098;2022-11-11T12:19:59;1.13;;;0.90;;
48215;SDS011;34005;48.844;10.098;2022-11-11T12:22:43;10.65;;;1.38;;
48215;SDS011;34005;48.844;10.098;2022-11-11T12:25:27;3.90;;;1.27;;
48215;SDS011;34005;48.844;10.098;2022-11-11T12:28:09;1.42;;;0.95;;
48215;SDS011;34005;48.844;10.098;2022-11-11T12:30:47;2.85;;;1.60;;
48215;SDS011;34005;48.844;10.098;2022-11-11T12:33:33;2.58;;;1.45;;
48215;SDS011;34005;48.844;10.098;2022-11-11T12:36:12;1.33;;;0.93;;
48215;SDS011;34005;48.844;10.098;2022-11-11T12:38:54;2.05;;;1.20;;
48215;SDS011;34005;48.844;10.098;2022-11-11T12:41:25;4.07;;;1.30;;
48215;SDS011;34005;48.844;10.098;2022-11-11T12:44:02;2.42;;;1.20;;
48215;SDS011;34005;48.844;10.098;2022-11-11T12:46:34;5.43;;;1.80;;
48215;SDS011;34005;48.844;10.098;2022-11-11T12:49:16;3.67;;;2.25;;
48215;SDS011;34005;48.844;10.098;2022-11-11T12:52:02;3.45;;;1.83;;
48215;SDS011;34005;48.844;10.098;2022-11-11T12:54:44;4.15;;;2.08;;
48215;SDS011;34005;48.844;10.098;2022-11-11T12:57:24;3.95;;;2.13;;
48215;SDS011;34005;48.844;10.098;2022-11-11T13:00:04;4.30;;;2.13;;
48215;SDS011;34005;48.844;10.098;2022-11-11T13:02:47;2.53;;;1.88;;
48215;SDS011;34005;48.844;10.098;2022-11-11T13:05:45;6.70;;;2.88;;
48215;SDS011;34005;48.844;10.098;2022-11-11T13:08:26;5.20;;;2.53;;
48215;SDS011;34005;48.844;10.098;2022-11-11T13:11:19;3.47;;;2.13;;
48215;SDS011;34005;48.844;10.098;2022-11-11T13:13:55;2.92;;;1.90;;
48215;SDS011;34005;48.844;10.098;2022-11-11T13:16:29;3.92;;;1.58;;
48215;SDS011;34005;48.844;10.098;2022-11-11T13:18:57;2.88;;;1.98;;
48215;SDS011;34005;48.844;10.098;2022-11-11T13:21:41;2.83;;;1.48;;
48215;SDS011;34005;48.844;10.098;2022-11-11T13:24:14;2.17;;;1.30;;
48215;SDS011;34005;48.844;10.098;2022-11-11T13:26:48;2.67;;;1.70;;
48215;SDS011;34005;48.844;10.098;2022-11-11T13:32:23;3.33;;;2.22;;
48215;SDS011;34005;48.844;10.098;2022-11-11T13:34:54;2.22;;;1.50;;
48215;SDS011;34005;48.844;10.098;2022-11-11T13:37:24;2.88;;;1.45;;
48215;SDS011;34005;48.844;10.098;2022-11-11T13:39:55;6.07;;;1.63;;
48215;SDS011;34005;48.844;10.098;2022-11-11T13:42:30;4.75;;;1.63;;
48215;SDS011;34005;48.844;10.098;2022-11-11T13:45:04;4.15;;;1.65;;
48215;SDS011;34005;48.844;10.098;2022-11-11T13:47:35;2.00;;;1.55;;
48215;SDS011;34005;48.844;10.098;2022-11-11T13:50:06;4.90;;;1.50;;
48215;SDS011;34005;48.844;10.098;2022-11-11T13:52:39;5.10;;;1.85;;
48215;SDS011;34005;48.844;10.098;2022-11-11T13:55:22;2.42;;;1.42;;
48215;SDS011;34005;48.844;10.098;2022-11-11T13:57:56;4.93;;;1.58;;
48215;SDS011;34005;48.844;10.098;2022-11-11T14:00:25;4.40;;;1.60;;
48215;SDS011;34005;48.844;10.098;2022-11-11T14:08:55;4.57;;;2.03;;
48215;SDS011;34005;48.844;10.098;2022-11-11T14:11:27;4.88;;;1.70;;
48215;SDS011;34005;48.844;10.098;2022-11-11T14:17:03;3.40;;;2.53;;
48215;SDS011;34005;48.844;10.098;2022-11-11T14:19:31;3.42;;;2.08;;
48215;SDS011;34005;48.844;10.098;2022-11-11T14:21:59;2.00;;;1.73;;
48215;SDS011;34005;48.844;10.098;2022-11-11T14:24:30;2.35;;;1.30;;
48215;SDS011;34005;48.844;10.098;2022-11-11T14:27:02;5.55;;;1.65;;
48215;SDS011;34005;48.844;10.098;2022-11-11T14:29:46;3.92;;;1.92;;
48215;SDS011;34005;48.844;10.098;2022-11-11T14:35:18;5.07;;;3.15;;
48215;SDS011;34005;48.844;10.098;2022-11-11T14:37:57;4.30;;;2.47;;
48215;SDS011;34005;48.844;10.098;2022-11-11T14:40:31;3.17;;;2.10;;
48215;SDS011;34005;48.844;10.098;2022-11-11T14:43:01;4.13;;;2.10;;
48215;SDS011;34005;48.844;10.098;2022-11-11T14:46:06;4.50;;;2.63;;
48215;SDS011;34005;48.844;10.098;2022-11-11T14:48:49;5.63;;;2.60;;
48215;SDS011;34005;48.844;10.098;2022-11-11T14:51:47;7.60;;;3.15;;
48215;SDS011;34005;48.844;10.098;2022-11-11T14:54:21;6.00;;;2.95;;
48215;SDS011;34005;48.844;10.098;2022-11-11T14:57:07;8.55;;;2.72;;
48215;SDS011;34005;48.844;10.098;2022-11-11T14:59:43;4.15;;;2.80;;
48215;SDS011;34005;48.844;10.098;2022-11-11T15:02:13;5.47;;;3.08;;
48215;SDS011;34005;48.844;10.098;2022-11-11T15:04:48;8.07;;;3.90;;
48215;SDS011;34005;48.844;10.098;2022-11-11T15:07:27;4.10;;;3.05;;
48215;SDS011;34005;48.844;10.098;2022-11-11T15:10:03;6.28;;;3.58;;
48215;SDS011;34005;48.844;10.098;2022-11-11T15:12:45;4.35;;;3.28;;
48215;SDS011;34005;48.844;10.098;2022-11-11T15:15:28;5.30;;;3.25;;
48215;SDS011;34005;48.844;10.098;2022-11-11T15:18:02;13.50;;;8.80;;
48215;SDS011;34005;48.844;10.098;2022-11-11T15:20:43;8.90;;;5.78;;
48215;SDS011;34005;48.844;10.098;2022-11-11T15:23:24;9.70;;;4.32;;
48215;SDS011;34005;48.844;10.098;2022-11-11T15:26:00;6.22;;;4.35;;